AirNav   Air Wisconsin pilot careers
 
 920 users online  

39R Flyin' B Airport
Houston, Texas, USA

GOING TO HOUSTON?


FAA INFORMATION EFFECTIVE 07 DECEMBER 2017

Location

FAA Identifier: 39R
Lat/Long: 29-32-15.4000N / 095-25-25.1000W
29-32.256667N / 095-25.418333W
29.5376111 / -95.4236389
(estimated)
Elevation: 73 ft. / 22 m (estimated)
Variation: 06E (1985)
From city: 15 miles S of HOUSTON, TX
Time zone: UTC -6 (UTC -5 during Daylight Saving Time)
Zip code: 77583

Airport Operations

Airport use: Open to the public
Control tower: no
ARTCC: HOUSTON CENTER
FSS: MONTGOMERY COUNTY FLIGHT SERVICE STATION
NOTAMs facility: CXO (NOTAM-D service available)
Attendance: UNATNDD
Wind indicator: yes
Segmented circle: no

Airport Communications

CTAF: 122.9
WX AWOS-3 at AXH (3 nm SW): 123.625 (281-431-6572)
WX ASOS at LVJ (10 nm E): 118.525 (281-992-1853)
WX ASOS at HOU (10 nm NE): PHONE 713-847-1462
WX ASOS at SGR (13 nm NW): 118.125 (281-242-7605)

Nearby radio navigation aids

VOR radial/distance  VOR name  Freq  Var
HUBr222/10.4HOBBY VOR/DME117.1005E
IAHr184/25.5HUMBLE VORTAC116.6005E
VUHr293/33.2SCHOLES VOR/DME113.0006E
MHFr262/35.3TRINITY VOR/DME113.6007E

 
NDB name  Hdg/Dist  Freq  Var  ID
SANJAC242/20.134705EJPA .--- .--. .-
NIXIN197/29.432605EBVP -... ...- .--.
GALVESTON281/37.020608EGLS --. .-.. ...

Airport Services

Runway Information

Runway 17/35

Dimensions: 2100 x 75 ft. / 640 x 23 m
Surface: turf, in fair condition
RY SFC HAS ROUGH AREAS & UNEVEN WITH TIRE RUTS.
RUNWAY 17  RUNWAY 35
Latitude: 29-32.430290N29-32.083907N
Longitude: 095-25.424195W095-25.411467W
Elevation: 68.0 ft.73.0 ft.
Traffic pattern: leftleft
Runway heading: 172 magnetic, 178 true352 magnetic, 358 true
Obstructions: 30 ft. pline, 20 ft. from runway5 ft. hill, 90 ft. right of centerline

Airport Ownership and Management from official FAA records

Ownership: Privately-owned
Owner: SMITH PARK 21
4610 CURRY RD
MANVEL, TX 77578
Phone 713-443-1850
ARPT ADDRESS 1422 CO RD 59, ROSHARON, TX.
Manager: DAVID PARKER
4610 CURRY RD
HOUSTON, TX 77578
Phone 713-443-1850

Additional Remarks

BAYOU AT SOUTH END OF RWY.
GND DROPS OFF SHARPLY AT END OF RY 17 20 FT FM THLD.
FOR CD CTC HOUSTON APCH AT 281-443-5844 TO CNL IFR CALL 281-443-5888.

Instrument Procedures

There are no published instrument procedures at 39R.

Some nearby airports with instrument procedures:

KAXH - Houston Southwest Airport (3 nm SW)
KLVJ - Pearland Regional Airport (10 nm E)
KHOU - William P Hobby Airport (10 nm NE)
KSGR - Sugar Land Regional Airport (13 nm NW)
KEFD - Ellington Airport (14 nm E)
 
Loc | Ops | Rwys | IFR | FBO | Links
Com | Nav | Svcs | Stats | Notes


 
Area around 39R (Flyin' B Airport)
 
Road maps at: MapQuest Bing Google
 
Aerial photo
No photo
 
Sectional chart

 
Airport distance calculator
Flying to Flyin' B Airport? Find the distance to fly.

From to 39R

Sunrise and sunset
Times for 16-Dec-2017
 Local
(UTC-6)
 Zulu
(UTC)
Morning civil twilight06:4412:44
Sunrise07:1113:11
Sunset17:2423:24
Evening civil twilight17:5023:50

Current date and time
Zulu (UTC)  16-Dec-2017 16:13:23
Local (UTC-6)  16-Dec-2017 10:13:23
 
METAR
KAXH 
3nm SW 
161555Z AUTO 11006KT 10SM SCT065 OVC085 12/03 A3023 RMK AO2 T01160031
KLVJ 
9nm E 
161553Z AUTO 10008KT 10SM OVC075 12/03 A3024 RMK AO2 SLP239 T01170028
KHOU 
9nm NE 
161553Z 11008KT 10SM BKN065 BKN085 12/04 A3022 RMK AO2 SLP237 T01220044
KSGR 
13nm W 
161553Z 10007KT 10SM BKN060 OVC090 12/04 A3021 RMK AO2 SLP234 T01220039
KEFD 
14nm E 
161550Z 10009KT 10SM BKN075 BKN100 12/06 A3024
TAF
KHOU 
9nm NE 
161138Z 1612/1712 00000KT P6SM BKN090 FM161400 12007KT P6SM BKN050 OVC100 FM161800 10010KT P6SM VCSH OVC050 FM162200 07012KT P6SM -SHRA SCT025 OVC050 FM170100 08012KT 4SM TSRA SCT007 OVC015CB FM170500 05010KT P6SM SCT010 OVC020 FM171000 07003KT 4SM BR BKN007
KSGR 
13nm W 
161138Z 1612/1712 00000KT P6SM OVC080 FM161400 12007KT P6SM BKN050 OVC100 FM161800 10010KT P6SM VCSH OVC050 FM162200 08012KT P6SM -SHRA SCT025 OVC050 FM170100 07012KT 4SM TSRA SCT007 OVC015CB FM170500 05010KT P6SM SCT010 OVC020 FM171000 07003KT 4SM BR BKN007
KEFD 
14nm E 
161200Z 1612/1718 15009KT 9999 SCT050 BKN080 QNH3013INS BECMG 1703/1704 11010G15KT 8000 -RA SCT010 OVC020 520204 QNH3005INS BECMG 1711/1712 14009KT 9999 NSW BKN010 OVC020 QNH3009INS BECMG 1715/1716 17009KT 9999 BKN025 QNH3011INS TX15/1620Z TN07/1613Z
NOTAMs
Click for the latest NOTAMs
NOTAMs are issued by the DoD/FAA and will open in a separate window not controlled by AirNav.

 

 
 

Would you like to see your business listed on this page?

 If your business provides an interesting product or service to pilots, flight crews, aircraft, or users of the Flyin' B Airport, you should consider listing it here.  To start the listing process, click on the button below
 
Add a business
 

Other Pages about Flyin' B Airport

Update a link
 
Copyright © AirNav, LLC. All rights reserved. Privacy Policy  Contact